Hollywood, Mississippi
Current Conditions -  °F | °C
As of 6:55 AM on Wednesday 26 Nov 2014 (Local Time) from KUTA Reporting Station
Clear Clear  
Wind Chill: 24°   Ceiling: Unl
Heat Index: 30°   Visibility: 10mi
Dew Point: 28°   Wind: 6mph
Humidity: 93%   Direction: 160°SSE
Pressure: 30.16"   Gusts: NA
Location:  34.6827°N, 90.3615°W
Report Text: KUTA 261255Z AUTO 16005KT 10SM CLR M01/M02 A3016 RMK AO2
Loading
Personal Weather Stations






























Interactive Weather Map New forecast layout! Learn more

10-Day Weather Forecast

Advertisements
Track Severe Weather on mobile